createdAt,value
2018-07-27T00:00:28.093Z,31.80
2018-07-27T00:05:30.249Z,31.50
2018-07-27T00:10:32.397Z,31.30
2018-07-27T00:15:34.542Z,30.80
2018-07-27T00:20:36.746Z,31.00
2018-07-27T00:25:38.930Z,30.90
2018-07-27T00:30:41.110Z,31.20
2018-07-27T00:35:43.254Z,31.30
2018-07-27T00:40:45.432Z,31.40
2018-07-27T00:45:47.645Z,31.60
2018-07-27T00:50:49.982Z,32.00
2018-07-27T00:55:52.151Z,36.10
2018-07-27T01:00:54.328Z,38.10
2018-07-27T01:05:56.503Z,38.90
2018-07-27T01:10:58.696Z,39.40
2018-07-27T01:16:01.029Z,40.00
2018-07-27T01:21:03.208Z,39.40
2018-07-27T01:26:05.377Z,40.10
2018-07-27T01:31:07.550Z,42.70
2018-07-27T01:36:09.720Z,44.20
2018-07-27T01:41:11.891Z,44.70
2018-07-27T01:46:14.093Z,45.90
2018-07-27T01:51:16.253Z,45.70
2018-07-27T01:56:18.426Z,46.10
2018-07-27T02:01:20.588Z,46.40
2018-07-27T02:06:22.746Z,45.90
2018-07-27T02:11:25.058Z,47.10
2018-07-27T02:16:27.221Z,47.30
2018-07-27T02:21:29.393Z,48.40
2018-07-27T02:26:31.524Z,47.50
2018-07-27T02:31:33.662Z,47.60
2018-07-27T02:36:35.825Z,49.30
2018-07-27T02:41:38.022Z,48.90
2018-07-27T02:46:40.181Z,49.50
2018-07-27T02:51:42.334Z,49.80
2018-07-27T02:56:44.499Z,49.50
2018-07-27T03:01:46.657Z,51.10
2018-07-27T03:06:48.809Z,50.60
2018-07-27T03:11:50.986Z,50.20
2018-07-27T03:16:53.133Z,51.20
2018-07-27T03:21:55.442Z,50.20
2018-07-27T03:26:57.607Z,48.70
2018-07-27T03:31:59.765Z,46.80
2018-07-27T03:37:01.975Z,46.70
2018-07-27T03:42:04.169Z,46.10
2018-07-27T03:47:06.341Z,45.90
2018-07-27T03:52:08.485Z,46.00
2018-07-27T03:57:10.677Z,45.80
2018-07-27T04:02:12.978Z,45.90
2018-07-27T04:07:15.107Z,45.60
2018-07-27T04:12:17.289Z,45.50
2018-07-27T04:17:19.431Z,45.80
2018-07-27T04:22:22.121Z,45.60
2018-07-27T04:27:24.251Z,45.10
2018-07-27T04:32:26.413Z,45.30
2018-07-27T04:37:28.594Z,45.50
2018-07-27T04:42:30.765Z,44.80
2018-07-27T04:47:32.933Z,43.80
2018-07-27T04:52:35.078Z,43.90
2018-07-27T04:57:37.261Z,43.30
2018-07-27T05:02:39.434Z,42.70
2018-07-27T05:07:41.592Z,42.10
2018-07-27T05:12:43.765Z,41.50
2018-07-27T05:17:46.113Z,41.30
2018-07-27T05:22:48.287Z,40.20
2018-07-27T05:27:50.520Z,40.10
2018-07-27T05:32:53.305Z,39.60
2018-07-27T05:37:55.561Z,39.30
2018-07-27T05:42:57.719Z,40.40
2018-07-27T05:47:59.854Z,40.50
2018-07-27T05:53:01.969Z,38.40
2018-07-27T05:58:04.365Z,36.80
2018-07-27T06:03:06.534Z,36.40
2018-07-27T06:08:08.697Z,35.80
2018-07-27T06:13:10.857Z,36.40
2018-07-27T06:18:13.178Z,36.60
2018-07-27T06:23:15.211Z,37.00
2018-07-27T06:28:17.794Z,36.80
2018-07-27T06:33:19.917Z,36.60
2018-07-27T06:38:22.098Z,36.30
2018-07-27T06:43:24.258Z,36.60
2018-07-27T06:48:26.417Z,36.10
2018-07-27T06:53:28.578Z,35.50
2018-07-27T06:58:30.753Z,34.70
2018-07-27T07:03:32.970Z,35.30
2018-07-27T07:08:35.078Z,34.30
2018-07-27T07:13:37.256Z,35.60
2018-07-27T07:18:39.421Z,34.00
2018-07-27T07:23:41.577Z,34.00
2018-07-27T07:28:43.755Z,34.10
2018-07-27T07:33:45.914Z,31.70
2018-07-27T07:38:48.130Z,31.60
2018-07-27T07:43:50.395Z,31.80
2018-07-27T07:48:52.638Z,31.70
2018-07-27T07:53:54.793Z,31.90
2018-07-27T07:58:56.969Z,31.00
2018-07-27T08:03:59.131Z,30.90
2018-07-27T08:09:01.865Z,31.10
2018-07-27T08:14:04.150Z,31.80
2018-07-27T08:19:06.333Z,31.90
2018-07-27T08:24:08.497Z,30.80
2018-07-27T08:29:11.825Z,31.20
2018-07-27T08:34:14.718Z,31.10
2018-07-27T08:39:18.030Z,30.70
2018-07-27T08:44:21.555Z,31.30
2018-07-27T08:49:23.715Z,30.60
2018-07-27T08:54:25.877Z,31.10
2018-07-27T08:59:28.045Z,30.50
2018-07-27T09:04:30.253Z,30.10
2018-07-27T09:09:32.410Z,31.30
2018-07-27T09:14:34.551Z,30.80
2018-07-27T09:19:36.701Z,30.60
2018-07-27T09:24:39.028Z,30.60
2018-07-27T09:29:41.036Z,30.20
2018-07-27T09:34:43.206Z,29.50
2018-07-27T09:39:45.371Z,30.60
2018-07-27T09:44:47.512Z,29.40
2018-07-27T09:49:49.670Z,30.70
2018-07-27T09:54:51.861Z,29.90
2018-07-27T09:59:54.105Z,29.30
2018-07-27T10:04:56.269Z,29.50
2018-07-27T10:09:58.434Z,29.40
2018-07-27T10:15:00.586Z,28.30
2018-07-27T10:20:02.858Z,28.70
2018-07-27T10:25:05.022Z,27.70
2018-07-27T10:30:07.366Z,28.00
2018-07-27T10:35:09.501Z,27.80
2018-07-27T10:40:11.697Z,27.80
2018-07-27T10:45:13.889Z,27.00
2018-07-27T10:50:16.106Z,27.60
2018-07-27T10:55:18.231Z,27.80
2018-07-27T11:00:20.374Z,27.30
2018-07-27T11:05:22.548Z,27.10
2018-07-27T11:10:24.804Z,28.30
2018-07-27T11:15:27.854Z,23.60
2018-07-27T11:20:30.010Z,26.90
2018-07-27T11:25:32.179Z,27.20
2018-07-27T11:30:34.309Z,25.40
2018-07-27T11:35:36.468Z,23.70
2018-07-27T11:40:38.632Z,23.40
2018-07-27T11:45:40.798Z,23.90
2018-07-27T11:50:42.937Z,24.00
2018-07-27T11:55:45.088Z,24.40
2018-07-27T12:00:47.217Z,23.20
2018-07-27T12:05:49.366Z,24.00
2018-07-27T12:10:51.504Z,24.20
2018-07-27T12:15:53.653Z,25.00
2018-07-27T12:20:55.856Z,24.40
2018-07-27T12:25:57.921Z,24.60
2018-07-27T12:31:00.050Z,25.20
2018-07-27T12:36:02.214Z,25.80
2018-07-27T12:41:04.447Z,26.10
2018-07-27T12:46:06.595Z,25.10
2018-07-27T12:51:08.766Z,26.20
2018-07-27T12:56:10.902Z,26.20
2018-07-27T13:01:13.033Z,24.70
2018-07-27T13:06:15.199Z,25.10
2018-07-27T13:11:17.390Z,26.50
2018-07-27T13:16:19.550Z,26.80
2018-07-27T13:21:21.704Z,27.30
2018-07-27T13:26:23.921Z,27.30
2018-07-27T13:31:59.497Z,26.10
2018-07-27T13:37:02.110Z,25.10
2018-07-27T13:42:05.109Z,25.50
2018-07-27T13:47:07.908Z,25.20
2018-07-27T13:52:10.135Z,26.30
2018-07-27T13:57:12.288Z,25.60
2018-07-27T14:02:14.553Z,26.10
2018-07-27T14:07:16.758Z,26.10
2018-07-27T14:12:18.925Z,25.20
2018-07-27T14:17:21.106Z,25.20
2018-07-27T14:22:23.303Z,24.50
2018-07-27T14:27:25.502Z,25.40
2018-07-27T14:32:27.669Z,26.10
2018-07-27T14:37:29.858Z,25.50
2018-07-27T14:42:32.022Z,25.10
2018-07-27T14:47:34.199Z,25.40
2018-07-27T14:52:36.513Z,25.40
2018-07-27T14:57:38.564Z,25.20
2018-07-27T15:02:40.787Z,24.80
2018-07-27T15:07:42.968Z,24.20
2018-07-27T15:12:45.118Z,24.20
2018-07-27T15:17:47.458Z,25.10
2018-07-27T15:22:49.759Z,25.60
2018-07-27T15:27:51.935Z,25.90
2018-07-27T15:32:54.421Z,24.90
2018-07-27T15:37:56.595Z,25.60
2018-07-27T15:42:58.756Z,26.20
2018-07-27T15:48:00.910Z,26.40
2018-07-27T15:53:03.092Z,26.80
2018-07-27T15:58:05.290Z,26.40
2018-07-27T16:03:07.456Z,27.00
2018-07-27T16:08:09.631Z,26.90
2018-07-27T16:13:11.843Z,25.90
2018-07-27T16:18:14.116Z,27.00
2018-07-27T16:23:16.274Z,27.00
2018-07-27T16:28:18.430Z,27.30
2018-07-27T16:33:20.574Z,27.70
2018-07-27T16:38:22.737Z,27.90
2018-07-27T16:43:24.903Z,28.70
2018-07-27T16:48:27.041Z,29.30
2018-07-27T16:53:29.185Z,30.70
2018-07-27T16:58:31.317Z,31.80
2018-07-27T17:03:33.525Z,31.90
2018-07-27T17:08:35.678Z,31.50
2018-07-27T17:13:37.844Z,31.60
2018-07-27T17:18:39.970Z,32.50
2018-07-27T17:23:42.157Z,32.60
2018-07-27T17:28:44.333Z,32.70
2018-07-27T17:33:46.490Z,33.20
2018-07-27T17:38:48.999Z,33.10
2018-07-27T17:43:51.578Z,32.00
2018-07-27T17:48:53.755Z,32.20
2018-07-27T17:53:55.906Z,32.60
2018-07-27T17:58:58.073Z,33.10
2018-07-27T18:04:00.262Z,33.20
2018-07-27T18:09:03.113Z,33.20
2018-07-27T18:14:05.518Z,33.70
2018-07-27T18:19:07.688Z,33.80
2018-07-27T18:24:09.817Z,34.00
2018-07-27T18:29:11.938Z,34.20
2018-07-27T18:34:14.060Z,34.90
2018-07-27T18:39:16.234Z,34.60
2018-07-27T18:44:18.357Z,35.30
2018-07-27T18:54:22.657Z,36.30
2018-07-27T18:59:24.833Z,36.60
2018-07-27T19:04:27.009Z,36.70
2018-07-27T19:09:29.141Z,37.00
2018-07-27T19:14:31.249Z,37.10
2018-07-27T19:19:33.397Z,37.30
2018-07-27T19:24:35.668Z,37.50
2018-07-27T19:29:37.855Z,37.60
2018-07-27T19:34:40.008Z,37.30
2018-07-27T19:39:42.152Z,37.00
2018-07-27T19:44:44.305Z,37.00
2018-07-27T19:49:47.985Z,37.00
2018-07-27T19:54:50.169Z,37.00
2018-07-27T19:59:52.345Z,37.30
2018-07-27T20:04:54.492Z,36.50
2018-07-27T20:09:56.656Z,32.40
2018-07-27T20:14:58.829Z,31.60
2018-07-27T20:20:01.074Z,31.90
2018-07-27T20:25:04.206Z,32.20
2018-07-27T20:30:06.409Z,32.80
2018-07-27T20:35:08.565Z,32.80
2018-07-27T20:40:10.725Z,33.10
2018-07-27T20:45:13.141Z,33.20
2018-07-27T20:50:15.302Z,33.00
2018-07-27T20:55:17.482Z,33.10
2018-07-27T21:00:19.613Z,33.20
2018-07-27T21:05:21.798Z,33.10
2018-07-27T21:10:24.710Z,33.60
2018-07-27T21:15:26.852Z,33.50
2018-07-27T21:20:29.010Z,33.30
2018-07-27T21:25:31.157Z,33.40
2018-07-27T21:30:33.298Z,33.40
2018-07-27T21:35:35.586Z,33.20
2018-07-27T21:40:37.719Z,33.60
2018-07-27T21:45:39.926Z,34.20
2018-07-27T21:50:42.014Z,34.70
2018-07-27T21:55:44.127Z,34.70
2018-07-27T22:00:46.298Z,35.00
2018-07-27T22:05:48.427Z,35.00
2018-07-27T22:10:50.594Z,34.80
2018-07-27T22:15:52.709Z,34.70
2018-07-27T22:20:54.843Z,35.20
2018-07-27T22:25:56.981Z,35.20
2018-07-27T22:30:59.101Z,35.70
2018-07-27T22:36:01.257Z,35.90
2018-07-27T22:41:03.410Z,35.80
2018-07-27T22:46:05.753Z,35.40
2018-07-27T22:51:07.905Z,35.90
2018-07-27T22:56:10.079Z,35.60
2018-07-27T23:01:12.246Z,35.90
2018-07-27T23:06:14.401Z,37.40
2018-07-27T23:11:16.541Z,38.10
2018-07-27T23:16:18.681Z,38.70
2018-07-27T23:21:20.863Z,39.60
2018-07-27T23:26:23.095Z,40.70
2018-07-27T23:31:25.238Z,42.10
2018-07-27T23:36:27.414Z,41.60
2018-07-27T23:41:29.593Z,42.10
2018-07-27T23:46:31.777Z,42.70
2018-07-27T23:51:33.946Z,43.10
2018-07-27T23:56:36.132Z,43.90
